Cologne, New Jersey
Current Conditions -  °F | °C
As of 11:54 AM on Wednesday 22 Oct 2014 (Local Time) from KACY Reporting Station
Overcast Overcast  
Wind Chill: 60°   Ceiling: 1800
Heat Index: 60°   Visibility: 10mi
Dew Point: 54°   Wind: 22mph
Humidity: 80%   Direction: 30°NNE
Pressure: 29.81"   Gusts: 30mph
Location:  39.5°N, 74.61°W
Report Text: KACY 221554Z 03019G26KT 10SM BKN018 OVC026 16/12 A2981 RMK AO2 PK WND 03026/1553 SLP094 T01560122
Loading
Personal Weather Stations






























Interactive Weather Map
Tropical Storm Tracking
New forecast layout! Learn more

10-Day Weather Forecast

Advertisements
Track Severe Weather on mobile